East Vandergrift, Pennsylvania
Current Conditions -  °F | °C
As of 4:45 PM on Saturday 25 Oct 2014 (Local Time) from KLBE Reporting Station
Broken Clouds Broken Clouds  
Wind Chill: 64°   Ceiling: 4500
Heat Index: 64°   Visibility: 20mi
Dew Point: 50°   Wind: 12mph
Humidity: 59%   Direction: 230°SW
Pressure: 29.78"   Gusts: 23mph
Location:  40.6°N, 79.56°W
Report Text: KLBE 252045Z 23010G20KT 20SM BKN045 18/10 A2978
Loading
Personal Weather Stations






























Interactive Weather Map
Tropical Storm Tracking
New forecast layout! Learn more

10-Day Weather Forecast

Advertisements
Track Severe Weather on mobile